sensor_id;sensor_type;location;lat;lon;timestamp;P1;durP1;ratioP1;P2;durP2;ratioP2
34711;SDS011;20941;42.408;25.634;2023-11-21T00:01:57;9.38;;;5.43;;
34711;SDS011;20941;42.408;25.634;2023-11-21T00:04:23;11.57;;;5.35;;
34711;SDS011;20941;42.408;25.634;2023-11-21T00:06:50;10.68;;;5.68;;
34711;SDS011;20941;42.408;25.634;2023-11-21T00:09:16;13.20;;;6.10;;
34711;SDS011;20941;42.408;25.634;2023-11-21T00:11:42;19.85;;;6.85;;
34711;SDS011;20941;42.408;25.634;2023-11-21T00:14:09;21.92;;;6.35;;
34711;SDS011;20941;42.408;25.634;2023-11-21T00:16:35;19.90;;;6.05;;
34711;SDS011;20941;42.408;25.634;2023-11-21T00:19:01;14.30;;;5.40;;
34711;SDS011;20941;42.408;25.634;2023-11-21T00:21:27;13.93;;;5.53;;
34711;SDS011;20941;42.408;25.634;2023-11-21T00:23:52;15.55;;;4.70;;
34711;SDS011;20941;42.408;25.634;2023-11-21T00:26:18;9.55;;;4.50;;
34711;SDS011;20941;42.408;25.634;2023-11-21T00:28:43;11.07;;;4.70;;
34711;SDS011;20941;42.408;25.634;2023-11-21T00:31:09;9.30;;;4.32;;
34711;SDS011;20941;42.408;25.634;2023-11-21T00:33:34;11.10;;;6.13;;
34711;SDS011;20941;42.408;25.634;2023-11-21T00:36:00;11.05;;;5.75;;
34711;SDS011;20941;42.408;25.634;2023-11-21T00:38:26;15.85;;;5.85;;
34711;SDS011;20941;42.408;25.634;2023-11-21T00:40:52;12.02;;;5.65;;
34711;SDS011;20941;42.408;25.634;2023-11-21T00:43:21;10.43;;;4.93;;
34711;SDS011;20941;42.408;25.634;2023-11-21T00:45:48;10.75;;;5.45;;
34711;SDS011;20941;42.408;25.634;2023-11-21T00:48:14;12.27;;;4.78;;
34711;SDS011;20941;42.408;25.634;2023-11-21T00:50:40;11.60;;;4.97;;
34711;SDS011;20941;42.408;25.634;2023-11-21T00:53:06;8.07;;;4.00;;
34711;SDS011;20941;42.408;25.634;2023-11-21T00:55:33;8.70;;;3.92;;
34711;SDS011;20941;42.408;25.634;2023-11-21T00:57:59;5.90;;;3.25;;
34711;SDS011;20941;42.408;25.634;2023-11-21T01:00:25;9.05;;;3.55;;
34711;SDS011;20941;42.408;25.634;2023-11-21T01:02:51;4.88;;;3.33;;
34711;SDS011;20941;42.408;25.634;2023-11-21T01:05:17;8.73;;;4.28;;
34711;SDS011;20941;42.408;25.634;2023-11-21T01:07:42;9.68;;;3.60;;
34711;SDS011;20941;42.408;25.634;2023-11-21T01:10:08;10.45;;;3.90;;
34711;SDS011;20941;42.408;25.634;2023-11-21T01:12:35;7.32;;;3.10;;
34711;SDS011;20941;42.408;25.634;2023-11-21T01:15:03;6.35;;;3.58;;
34711;SDS011;20941;42.408;25.634;2023-11-21T01:17:32;5.75;;;3.42;;
34711;SDS011;20941;42.408;25.634;2023-11-21T01:19:59;8.10;;;3.90;;
34711;SDS011;20941;42.408;25.634;2023-11-21T01:22:25;6.10;;;3.42;;
34711;SDS011;20941;42.408;25.634;2023-11-21T01:24:54;6.00;;;3.20;;
34711;SDS011;20941;42.408;25.634;2023-11-21T01:27:20;8.95;;;3.75;;
34711;SDS011;20941;42.408;25.634;2023-11-21T01:29:45;8.65;;;4.10;;
34711;SDS011;20941;42.408;25.634;2023-11-21T01:32:11;7.28;;;3.67;;
34711;SDS011;20941;42.408;25.634;2023-11-21T01:34:37;5.68;;;3.25;;
34711;SDS011;20941;42.408;25.634;2023-11-21T01:37:21;8.25;;;4.07;;
34711;SDS011;20941;42.408;25.634;2023-11-21T01:39:47;7.18;;;3.22;;
34711;SDS011;20941;42.408;25.634;2023-11-21T01:42:13;4.75;;;2.67;;
34711;SDS011;20941;42.408;25.634;2023-11-21T01:44:39;3.72;;;2.75;;
34711;SDS011;20941;42.408;25.634;2023-11-21T01:47:05;3.30;;;2.28;;
34711;SDS011;20941;42.408;25.634;2023-11-21T01:49:32;5.25;;;2.67;;
34711;SDS011;20941;42.408;25.634;2023-11-21T01:51:58;3.85;;;2.35;;
34711;SDS011;20941;42.408;25.634;2023-11-21T01:54:24;8.10;;;2.80;;
34711;SDS011;20941;42.408;25.634;2023-11-21T01:56:50;3.17;;;2.10;;
34711;SDS011;20941;42.408;25.634;2023-11-21T01:59:20;7.55;;;3.03;;
34711;SDS011;20941;42.408;25.634;2023-11-21T02:01:46;6.03;;;3.38;;
34711;SDS011;20941;42.408;25.634;2023-11-21T02:04:12;7.38;;;2.95;;
34711;SDS011;20941;42.408;25.634;2023-11-21T02:06:39;6.25;;;3.13;;
34711;SDS011;20941;42.408;25.634;2023-11-21T02:09:04;4.43;;;2.92;;
34711;SDS011;20941;42.408;25.634;2023-11-21T02:11:30;12.55;;;4.80;;
34711;SDS011;20941;42.408;25.634;2023-11-21T02:13:57;6.78;;;3.75;;
34711;SDS011;20941;42.408;25.634;2023-11-21T02:16:25;10.27;;;4.25;;
34711;SDS011;20941;42.408;25.634;2023-11-21T02:18:52;8.30;;;3.88;;
34711;SDS011;20941;42.408;25.634;2023-11-21T02:21:18;9.07;;;4.45;;
34711;SDS011;20941;42.408;25.634;2023-11-21T02:23:44;12.18;;;4.25;;
34711;SDS011;20941;42.408;25.634;2023-11-21T02:26:11;9.25;;;4.25;;
34711;SDS011;20941;42.408;25.634;2023-11-21T02:28:38;7.40;;;4.00;;
34711;SDS011;20941;42.408;25.634;2023-11-21T02:31:04;7.63;;;4.70;;
34711;SDS011;20941;42.408;25.634;2023-11-21T02:33:30;26.55;;;8.88;;
34711;SDS011;20941;42.408;25.634;2023-11-21T02:36:02;9.95;;;5.45;;
34711;SDS011;20941;42.408;25.634;2023-11-21T02:38:28;23.85;;;8.63;;
34711;SDS011;20941;42.408;25.634;2023-11-21T02:40:53;17.00;;;7.20;;
34711;SDS011;20941;42.408;25.634;2023-11-21T02:43:19;21.25;;;7.47;;
34711;SDS011;20941;42.408;25.634;2023-11-21T02:45:44;15.15;;;6.68;;
34711;SDS011;20941;42.408;25.634;2023-11-21T02:48:10;29.42;;;8.43;;
34711;SDS011;20941;42.408;25.634;2023-11-21T02:50:36;18.45;;;7.13;;
34711;SDS011;20941;42.408;25.634;2023-11-21T02:53:02;15.70;;;7.18;;
34711;SDS011;20941;42.408;25.634;2023-11-21T02:55:29;21.23;;;7.78;;
34711;SDS011;20941;42.408;25.634;2023-11-21T02:57:55;20.13;;;6.97;;
34711;SDS011;20941;42.408;25.634;2023-11-21T03:00:24;13.30;;;6.18;;
34711;SDS011;20941;42.408;25.634;2023-11-21T03:02:51;10.45;;;5.55;;
34711;SDS011;20941;42.408;25.634;2023-11-21T03:05:17;12.95;;;6.15;;
34711;SDS011;20941;42.408;25.634;2023-11-21T03:07:43;10.57;;;5.68;;
34711;SDS011;20941;42.408;25.634;2023-11-21T03:10:08;19.20;;;6.28;;
34711;SDS011;20941;42.408;25.634;2023-11-21T03:12:36;12.52;;;6.25;;
34711;SDS011;20941;42.408;25.634;2023-11-21T03:15:03;8.95;;;4.80;;
34711;SDS011;20941;42.408;25.634;2023-11-21T03:17:31;10.07;;;4.22;;
34711;SDS011;20941;42.408;25.634;2023-11-21T03:19:58;11.50;;;5.07;;
34711;SDS011;20941;42.408;25.634;2023-11-21T03:22:24;14.07;;;6.25;;
34711;SDS011;20941;42.408;25.634;2023-11-21T03:24:50;11.32;;;5.50;;
34711;SDS011;20941;42.408;25.634;2023-11-21T03:27:16;10.80;;;5.15;;
34711;SDS011;20941;42.408;25.634;2023-11-21T03:29:41;15.23;;;5.72;;
34711;SDS011;20941;42.408;25.634;2023-11-21T03:32:07;10.13;;;5.95;;
34711;SDS011;20941;42.408;25.634;2023-11-21T03:34:32;12.55;;;5.85;;
34711;SDS011;20941;42.408;25.634;2023-11-21T03:36:58;12.68;;;6.45;;
34711;SDS011;20941;42.408;25.634;2023-11-21T03:39:24;11.30;;;6.22;;
34711;SDS011;20941;42.408;25.634;2023-11-21T03:41:50;14.90;;;5.88;;
34711;SDS011;20941;42.408;25.634;2023-11-21T03:44:17;11.02;;;5.28;;
34711;SDS011;20941;42.408;25.634;2023-11-21T03:46:43;12.15;;;5.47;;
34711;SDS011;20941;42.408;25.634;2023-11-21T03:49:09;10.50;;;5.18;;
34711;SDS011;20941;42.408;25.634;2023-11-21T03:51:36;13.75;;;5.07;;
34711;SDS011;20941;42.408;25.634;2023-11-21T03:54:02;10.82;;;4.80;;
34711;SDS011;20941;42.408;25.634;2023-11-21T03:56:28;9.45;;;5.15;;
34711;SDS011;20941;42.408;25.634;2023-11-21T03:58:53;8.40;;;5.10;;
34711;SDS011;20941;42.408;25.634;2023-11-21T04:01:22;16.40;;;6.00;;
34711;SDS011;20941;42.408;25.634;2023-11-21T04:03:48;19.17;;;6.32;;
34711;SDS011;20941;42.408;25.634;2023-11-21T04:06:14;13.55;;;6.18;;
34711;SDS011;20941;42.408;25.634;2023-11-21T04:08:40;11.38;;;6.20;;
34711;SDS011;20941;42.408;25.634;2023-11-21T04:11:05;13.57;;;6.68;;
34711;SDS011;20941;42.408;25.634;2023-11-21T04:13:31;16.92;;;7.25;;
34711;SDS011;20941;42.408;25.634;2023-11-21T04:15:56;22.02;;;7.90;;
34711;SDS011;20941;42.408;25.634;2023-11-21T04:18:22;17.27;;;8.30;;
34711;SDS011;20941;42.408;25.634;2023-11-21T04:20:51;12.57;;;6.80;;
34711;SDS011;20941;42.408;25.634;2023-11-21T04:23:16;16.67;;;7.65;;
34711;SDS011;20941;42.408;25.634;2023-11-21T04:25:42;17.88;;;8.18;;
34711;SDS011;20941;42.408;25.634;2023-11-21T04:28:08;16.70;;;8.07;;
34711;SDS011;20941;42.408;25.634;2023-11-21T04:30:33;16.25;;;7.13;;
34711;SDS011;20941;42.408;25.634;2023-11-21T04:32:59;19.25;;;10.15;;
34711;SDS011;20941;42.408;25.634;2023-11-21T04:35:24;23.42;;;10.23;;
34711;SDS011;20941;42.408;25.634;2023-11-21T04:37:50;20.05;;;8.73;;
34711;SDS011;20941;42.408;25.634;2023-11-21T04:40:16;46.10;;;10.80;;
34711;SDS011;20941;42.408;25.634;2023-11-21T04:42:42;16.42;;;7.38;;
34711;SDS011;20941;42.408;25.634;2023-11-21T04:45:08;13.43;;;7.88;;
34711;SDS011;20941;42.408;25.634;2023-11-21T04:47:34;20.50;;;9.95;;
34711;SDS011;20941;42.408;25.634;2023-11-21T04:50:01;20.45;;;10.05;;
34711;SDS011;20941;42.408;25.634;2023-11-21T04:52:28;21.00;;;10.40;;
34711;SDS011;20941;42.408;25.634;2023-11-21T04:54:54;16.98;;;7.20;;
34711;SDS011;20941;42.408;25.634;2023-11-21T04:57:22;24.42;;;9.80;;
34711;SDS011;20941;42.408;25.634;2023-11-21T04:59:48;10.57;;;5.63;;
34711;SDS011;20941;42.408;25.634;2023-11-21T05:02:15;19.38;;;9.27;;
34711;SDS011;20941;42.408;25.634;2023-11-21T05:04:41;20.05;;;8.27;;
34711;SDS011;20941;42.408;25.634;2023-11-21T05:07:08;17.27;;;8.48;;
34711;SDS011;20941;42.408;25.634;2023-11-21T05:09:33;29.73;;;13.25;;
34711;SDS011;20941;42.408;25.634;2023-11-21T05:12:00;25.90;;;9.95;;
34711;SDS011;20941;42.408;25.634;2023-11-21T05:14:27;20.30;;;9.93;;
34711;SDS011;20941;42.408;25.634;2023-11-21T05:17:08;29.80;;;13.07;;
34711;SDS011;20941;42.408;25.634;2023-11-21T05:19:34;30.42;;;14.30;;
34711;SDS011;20941;42.408;25.634;2023-11-21T05:22:00;19.70;;;9.50;;
34711;SDS011;20941;42.408;25.634;2023-11-21T05:24:27;22.30;;;8.82;;
34711;SDS011;20941;42.408;25.634;2023-11-21T05:26:53;22.20;;;8.88;;
34711;SDS011;20941;42.408;25.634;2023-11-21T05:29:19;17.48;;;8.13;;
34711;SDS011;20941;42.408;25.634;2023-11-21T05:31:44;17.65;;;8.27;;
34711;SDS011;20941;42.408;25.634;2023-11-21T05:34:10;16.20;;;7.60;;
34711;SDS011;20941;42.408;25.634;2023-11-21T05:36:35;15.45;;;7.90;;
34711;SDS011;20941;42.408;25.634;2023-11-21T05:39:01;17.48;;;6.72;;
34711;SDS011;20941;42.408;25.634;2023-11-21T05:41:28;26.88;;;7.95;;
34711;SDS011;20941;42.408;25.634;2023-11-21T05:43:54;19.35;;;8.00;;
34711;SDS011;20941;42.408;25.634;2023-11-21T05:46:19;24.55;;;8.55;;
34711;SDS011;20941;42.408;25.634;2023-11-21T05:48:45;17.67;;;7.78;;
34711;SDS011;20941;42.408;25.634;2023-11-21T05:51:11;31.25;;;14.88;;
34711;SDS011;20941;42.408;25.634;2023-11-21T05:53:38;37.75;;;16.98;;
34711;SDS011;20941;42.408;25.634;2023-11-21T05:56:03;31.08;;;15.35;;
34711;SDS011;20941;42.408;25.634;2023-11-21T05:58:29;28.35;;;14.45;;
34711;SDS011;20941;42.408;25.634;2023-11-21T06:01:13;35.50;;;15.23;;
34711;SDS011;20941;42.408;25.634;2023-11-21T06:03:39;36.78;;;16.55;;
34711;SDS011;20941;42.408;25.634;2023-11-21T06:06:05;43.15;;;15.82;;
34711;SDS011;20941;42.408;25.634;2023-11-21T06:08:31;30.42;;;13.43;;
34711;SDS011;20941;42.408;25.634;2023-11-21T06:10:57;36.38;;;14.13;;
34711;SDS011;20941;42.408;25.634;2023-11-21T06:13:23;32.72;;;14.32;;
34711;SDS011;20941;42.408;25.634;2023-11-21T06:15:52;30.40;;;12.10;;
34711;SDS011;20941;42.408;25.634;2023-11-21T06:18:17;34.40;;;15.02;;
34711;SDS011;20941;42.408;25.634;2023-11-21T06:20:45;35.03;;;15.00;;
34711;SDS011;20941;42.408;25.634;2023-11-21T06:23:11;25.98;;;11.98;;
34711;SDS011;20941;42.408;25.634;2023-11-21T06:25:36;33.17;;;12.23;;
34711;SDS011;20941;42.408;25.634;2023-11-21T06:28:03;33.63;;;13.48;;
34711;SDS011;20941;42.408;25.634;2023-11-21T06:30:28;45.25;;;15.75;;
34711;SDS011;20941;42.408;25.634;2023-11-21T06:32:54;35.28;;;13.68;;
34711;SDS011;20941;42.408;25.634;2023-11-21T06:35:21;36.70;;;12.93;;
34711;SDS011;20941;42.408;25.634;2023-11-21T06:37:47;35.63;;;15.48;;
34711;SDS011;20941;42.408;25.634;2023-11-21T06:40:13;36.85;;;15.80;;
34711;SDS011;20941;42.408;25.634;2023-11-21T06:42:43;34.95;;;14.80;;
34711;SDS011;20941;42.408;25.634;2023-11-21T06:45:09;38.58;;;15.43;;
34711;SDS011;20941;42.408;25.634;2023-11-21T06:47:36;35.55;;;16.02;;
34711;SDS011;20941;42.408;25.634;2023-11-21T06:50:03;43.42;;;19.65;;
34711;SDS011;20941;42.408;25.634;2023-11-21T06:52:29;44.95;;;19.63;;
34711;SDS011;20941;42.408;25.634;2023-11-21T06:54:55;58.05;;;23.20;;
34711;SDS011;20941;42.408;25.634;2023-11-21T06:57:22;54.63;;;21.23;;
34711;SDS011;20941;42.408;25.634;2023-11-21T06:59:49;57.58;;;23.45;;
34711;SDS011;20941;42.408;25.634;2023-11-21T07:02:17;71.22;;;32.75;;
34711;SDS011;20941;42.408;25.634;2023-11-21T07:04:44;72.00;;;29.02;;
34711;SDS011;20941;42.408;25.634;2023-11-21T07:07:11;81.18;;;33.15;;
34711;SDS011;20941;42.408;25.634;2023-11-21T07:09:37;65.35;;;31.00;;
34711;SDS011;20941;42.408;25.634;2023-11-21T07:12:03;77.30;;;31.35;;
34711;SDS011;20941;42.408;25.634;2023-11-21T07:14:31;80.10;;;30.27;;
34711;SDS011;20941;42.408;25.634;2023-11-21T07:16:57;79.45;;;28.75;;
34711;SDS011;20941;42.408;25.634;2023-11-21T07:19:24;70.93;;;27.02;;
34711;SDS011;20941;42.408;25.634;2023-11-21T07:21:57;69.67;;;25.73;;
34711;SDS011;20941;42.408;25.634;2023-11-21T07:24:59;71.22;;;25.67;;
34711;SDS011;20941;42.408;25.634;2023-11-21T07:28:02;81.88;;;25.52;;
34711;SDS011;20941;42.408;25.634;2023-11-21T07:30:33;62.70;;;23.88;;
34711;SDS011;20941;42.408;25.634;2023-11-21T07:32:59;55.90;;;23.13;;
34711;SDS011;20941;42.408;25.634;2023-11-21T07:35:25;58.97;;;19.52;;
34711;SDS011;20941;42.408;25.634;2023-11-21T07:37:53;65.93;;;24.00;;
34711;SDS011;20941;42.408;25.634;2023-11-21T07:40:18;61.13;;;21.48;;
34711;SDS011;20941;42.408;25.634;2023-11-21T07:42:44;50.25;;;20.60;;
34711;SDS011;20941;42.408;25.634;2023-11-21T07:45:09;46.60;;;18.33;;
34711;SDS011;20941;42.408;25.634;2023-11-21T07:47:35;56.65;;;21.48;;
34711;SDS011;20941;42.408;25.634;2023-11-21T07:50:04;46.40;;;20.38;;
34711;SDS011;20941;42.408;25.634;2023-11-21T07:52:32;42.13;;;16.33;;
34711;SDS011;20941;42.408;25.634;2023-11-21T07:54:58;42.83;;;15.82;;
34711;SDS011;20941;42.408;25.634;2023-11-21T07:57:23;38.50;;;16.75;;
34711;SDS011;20941;42.408;25.634;2023-11-21T07:59:49;29.40;;;12.02;;
34711;SDS011;20941;42.408;25.634;2023-11-21T08:02:15;31.15;;;10.45;;
34711;SDS011;20941;42.408;25.634;2023-11-21T08:04:44;28.02;;;12.90;;
34711;SDS011;20941;42.408;25.634;2023-11-21T08:07:10;27.42;;;11.23;;
34711;SDS011;20941;42.408;25.634;2023-11-21T08:09:36;34.03;;;14.15;;
34711;SDS011;20941;42.408;25.634;2023-11-21T08:12:01;37.72;;;15.77;;
34711;SDS011;20941;42.408;25.634;2023-11-21T08:14:28;27.35;;;12.68;;
34711;SDS011;20941;42.408;25.634;2023-11-21T08:16:53;28.80;;;12.45;;
34711;SDS011;20941;42.408;25.634;2023-11-21T08:19:23;34.78;;;14.95;;
34711;SDS011;20941;42.408;25.634;2023-11-21T08:21:50;37.40;;;15.63;;
34711;SDS011;20941;42.408;25.634;2023-11-21T08:24:16;30.63;;;12.50;;
34711;SDS011;20941;42.408;25.634;2023-11-21T08:26:42;44.97;;;17.70;;
34711;SDS011;20941;42.408;25.634;2023-11-21T08:29:09;21.33;;;9.40;;
34711;SDS011;20941;42.408;25.634;2023-11-21T08:31:35;18.90;;;6.53;;
34711;SDS011;20941;42.408;25.634;2023-11-21T08:34:01;19.88;;;8.48;;
34711;SDS011;20941;42.408;25.634;2023-11-21T08:36:28;20.38;;;8.40;;
34711;SDS011;20941;42.408;25.634;2023-11-21T08:38:55;19.58;;;8.27;;
34711;SDS011;20941;42.408;25.634;2023-11-21T08:41:24;29.77;;;9.23;;
34711;SDS011;20941;42.408;25.634;2023-11-21T08:43:50;24.70;;;9.57;;
34711;SDS011;20941;42.408;25.634;2023-11-21T08:46:16;20.63;;;8.57;;
34711;SDS011;20941;42.408;25.634;2023-11-21T08:48:46;33.00;;;12.45;;
34711;SDS011;20941;42.408;25.634;2023-11-21T08:51:12;27.90;;;11.60;;
34711;SDS011;20941;42.408;25.634;2023-11-21T08:53:39;18.45;;;7.32;;
34711;SDS011;20941;42.408;25.634;2023-11-21T08:56:04;26.75;;;11.18;;
34711;SDS011;20941;42.408;25.634;2023-11-21T08:58:32;19.45;;;7.13;;
34711;SDS011;20941;42.408;25.634;2023-11-21T09:00:57;13.27;;;5.65;;
34711;SDS011;20941;42.408;25.634;2023-11-21T09:03:23;8.93;;;4.60;;
34711;SDS011;20941;42.408;25.634;2023-11-21T09:05:49;16.08;;;6.68;;
34711;SDS011;20941;42.408;25.634;2023-11-21T09:08:15;15.05;;;6.28;;
34711;SDS011;20941;42.408;25.634;2023-11-21T09:10:41;15.00;;;5.90;;
34711;SDS011;20941;42.408;25.634;2023-11-21T09:13:08;8.63;;;3.67;;
34711;SDS011;20941;42.408;25.634;2023-11-21T09:15:35;9.75;;;4.30;;
34711;SDS011;20941;42.408;25.634;2023-11-21T09:18:01;7.88;;;4.30;;
34711;SDS011;20941;42.408;25.634;2023-11-21T09:20:27;7.97;;;3.80;;
34711;SDS011;20941;42.408;25.634;2023-11-21T09:22:53;8.10;;;3.60;;
34711;SDS011;20941;42.408;25.634;2023-11-21T09:25:20;6.38;;;2.80;;
34711;SDS011;20941;42.408;25.634;2023-11-21T09:27:46;6.13;;;2.70;;
34711;SDS011;20941;42.408;25.634;2023-11-21T09:30:12;6.10;;;2.85;;
34711;SDS011;20941;42.408;25.634;2023-11-21T09:32:39;5.28;;;2.80;;
34711;SDS011;20941;42.408;25.634;2023-11-21T09:35:06;5.68;;;3.08;;
34711;SDS011;20941;42.408;25.634;2023-11-21T09:37:33;7.28;;;3.15;;
34711;SDS011;20941;42.408;25.634;2023-11-21T09:39:59;4.85;;;2.90;;
34711;SDS011;20941;42.408;25.634;2023-11-21T09:42:38;6.03;;;2.50;;
34711;SDS011;20941;42.408;25.634;2023-11-21T09:45:26;6.90;;;3.08;;
34711;SDS011;20941;42.408;25.634;2023-11-21T09:47:59;5.28;;;2.55;;
34711;SDS011;20941;42.408;25.634;2023-11-21T09:50:24;8.38;;;2.85;;
34711;SDS011;20941;42.408;25.634;2023-11-21T09:55:50;4.60;;;2.85;;
34711;SDS011;20941;42.408;25.634;2023-11-21T09:58:17;3.45;;;2.42;;
34711;SDS011;20941;42.408;25.634;2023-11-21T10:00:45;6.85;;;3.13;;
34711;SDS011;20941;42.408;25.634;2023-11-21T10:03:12;6.68;;;3.38;;
34711;SDS011;20941;42.408;25.634;2023-11-21T10:05:39;9.00;;;3.85;;
34711;SDS011;20941;42.408;25.634;2023-11-21T10:08:08;8.40;;;3.20;;
34711;SDS011;20941;42.408;25.634;2023-11-21T10:10:36;6.65;;;2.88;;
34711;SDS011;20941;42.408;25.634;2023-11-21T10:13:04;5.78;;;2.50;;
34711;SDS011;20941;42.408;25.634;2023-11-21T10:15:35;6.75;;;3.05;;
34711;SDS011;20941;42.408;25.634;2023-11-21T10:18:04;10.02;;;4.88;;
34711;SDS011;20941;42.408;25.634;2023-11-21T10:20:32;12.52;;;3.70;;
34711;SDS011;20941;42.408;25.634;2023-11-21T10:23:03;11.38;;;3.53;;
34711;SDS011;20941;42.408;25.634;2023-11-21T10:25:32;5.07;;;3.00;;
34711;SDS011;20941;42.408;25.634;2023-11-21T10:28:01;4.18;;;2.70;;
34711;SDS011;20941;42.408;25.634;2023-11-21T10:30:34;9.20;;;4.00;;
34711;SDS011;20941;42.408;25.634;2023-11-21T10:33:03;5.10;;;2.90;;
34711;SDS011;20941;42.408;25.634;2023-11-21T10:38:08;12.40;;;3.25;;
34711;SDS011;20941;42.408;25.634;2023-11-21T10:40:38;5.25;;;3.20;;
34711;SDS011;20941;42.408;25.634;2023-11-21T10:43:07;7.10;;;3.47;;
34711;SDS011;20941;42.408;25.634;2023-11-21T10:45:37;10.68;;;5.00;;
34711;SDS011;20941;42.408;25.634;2023-11-21T10:48:06;8.57;;;4.38;;
34711;SDS011;20941;42.408;25.634;2023-11-21T10:50:37;6.10;;;3.40;;
34711;SDS011;20941;42.408;25.634;2023-11-21T10:53:03;8.05;;;4.00;;
34711;SDS011;20941;42.408;25.634;2023-11-21T10:55:30;10.70;;;3.85;;
34711;SDS011;20941;42.408;25.634;2023-11-21T10:57:58;8.90;;;3.85;;
34711;SDS011;20941;42.408;25.634;2023-11-21T11:00:26;15.20;;;4.70;;
34711;SDS011;20941;42.408;25.634;2023-11-21T11:02:53;8.50;;;4.32;;
34711;SDS011;20941;42.408;25.634;2023-11-21T11:05:20;3.42;;;2.63;;
34711;SDS011;20941;42.408;25.634;2023-11-21T11:07:50;7.68;;;3.53;;
34711;SDS011;20941;42.408;25.634;2023-11-21T11:10:22;7.78;;;3.88;;
34711;SDS011;20941;42.408;25.634;2023-11-21T11:12:51;8.82;;;4.18;;
34711;SDS011;20941;42.408;25.634;2023-11-21T11:15:17;7.97;;;4.30;;
34711;SDS011;20941;42.408;25.634;2023-11-21T11:17:44;4.80;;;3.40;;
34711;SDS011;20941;42.408;25.634;2023-11-21T11:20:12;11.60;;;4.30;;
34711;SDS011;20941;42.408;25.634;2023-11-21T11:22:44;9.77;;;4.45;;
34711;SDS011;20941;42.408;25.634;2023-11-21T11:28:53;10.25;;;4.65;;
34711;SDS011;20941;42.408;25.634;2023-11-21T11:32:21;8.15;;;4.13;;
34711;SDS011;20941;42.408;25.634;2023-11-21T11:34:26;10.45;;;4.70;;
34711;SDS011;20941;42.408;25.634;2023-11-21T11:37:03;8.30;;;4.78;;
34711;SDS011;20941;42.408;25.634;2023-11-21T11:39:38;10.10;;;5.25;;
34711;SDS011;20941;42.408;25.634;2023-11-21T11:42:17;14.15;;;5.18;;
34711;SDS011;20941;42.408;25.634;2023-11-21T11:55:21;16.77;;;5.72;;
34711;SDS011;20941;42.408;25.634;2023-11-21T11:57:52;17.88;;;5.80;;
34711;SDS011;20941;42.408;25.634;2023-11-21T12:03:00;16.75;;;6.60;;
34711;SDS011;20941;42.408;25.634;2023-11-21T12:05:28;14.98;;;6.95;;
34711;SDS011;20941;42.408;25.634;2023-11-21T12:07:59;13.25;;;6.22;;
34711;SDS011;20941;42.408;25.634;2023-11-21T12:10:33;14.23;;;6.10;;
34711;SDS011;20941;42.408;25.634;2023-11-21T12:13:01;20.90;;;7.78;;
34711;SDS011;20941;42.408;25.634;2023-11-21T12:15:32;12.88;;;6.95;;
34711;SDS011;20941;42.408;25.634;2023-11-21T12:17:58;14.52;;;6.45;;
34711;SDS011;20941;42.408;25.634;2023-11-21T12:20:24;11.98;;;4.80;;
34711;SDS011;20941;42.408;25.634;2023-11-21T12:22:55;8.68;;;4.70;;
34711;SDS011;20941;42.408;25.634;2023-11-21T12:25:22;10.77;;;4.03;;
34711;SDS011;20941;42.408;25.634;2023-11-21T12:27:49;9.75;;;5.03;;
34711;SDS011;20941;42.408;25.634;2023-11-21T12:30:20;7.07;;;3.95;;
34711;SDS011;20941;42.408;25.634;2023-11-21T12:32:48;27.70;;;5.80;;
34711;SDS011;20941;42.408;25.634;2023-11-21T12:35:16;12.10;;;5.47;;
34711;SDS011;20941;42.408;25.634;2023-11-21T12:37:47;10.60;;;5.07;;
34711;SDS011;20941;42.408;25.634;2023-11-21T12:40:14;10.90;;;4.90;;
34711;SDS011;20941;42.408;25.634;2023-11-21T12:42:42;15.05;;;6.93;;
34711;SDS011;20941;42.408;25.634;2023-11-21T12:45:24;15.88;;;7.25;;
34711;SDS011;20941;42.408;25.634;2023-11-21T12:47:55;16.33;;;9.15;;
34711;SDS011;20941;42.408;25.634;2023-11-21T12:50:25;22.77;;;9.70;;
34711;SDS011;20941;42.408;25.634;2023-11-21T12:53:02;18.10;;;9.55;;
34711;SDS011;20941;42.408;25.634;2023-11-21T12:55:33;17.08;;;6.65;;
34711;SDS011;20941;42.408;25.634;2023-11-21T12:58:02;15.15;;;7.20;;
34711;SDS011;20941;42.408;25.634;2023-11-21T13:00:36;11.02;;;5.00;;
34711;SDS011;20941;42.408;25.634;2023-11-21T13:03:08;9.48;;;4.88;;
34711;SDS011;20941;42.408;25.634;2023-11-21T13:05:41;9.48;;;5.63;;
34711;SDS011;20941;42.408;25.634;2023-11-21T13:08:10;17.83;;;5.50;;
34711;SDS011;20941;42.408;25.634;2023-11-21T13:10:40;11.25;;;5.60;;
34711;SDS011;20941;42.408;25.634;2023-11-21T13:13:10;5.45;;;3.40;;
34711;SDS011;20941;42.408;25.634;2023-11-21T13:15:47;9.00;;;4.80;;
34711;SDS011;20941;42.408;25.634;2023-11-21T13:18:14;10.02;;;4.47;;
34711;SDS011;20941;42.408;25.634;2023-11-21T13:20:41;12.10;;;4.43;;
34711;SDS011;20941;42.408;25.634;2023-11-21T13:23:08;9.15;;;4.05;;
34711;SDS011;20941;42.408;25.634;2023-11-21T13:25:37;9.27;;;3.97;;
34711;SDS011;20941;42.408;25.634;2023-11-21T13:28:06;10.90;;;4.03;;
34711;SDS011;20941;42.408;25.634;2023-11-21T13:30:32;7.93;;;4.78;;
34711;SDS011;20941;42.408;25.634;2023-11-21T13:33:01;9.90;;;3.53;;
34711;SDS011;20941;42.408;25.634;2023-11-21T13:35:31;11.10;;;5.05;;
34711;SDS011;20941;42.408;25.634;2023-11-21T13:40:33;16.38;;;5.93;;
34711;SDS011;20941;42.408;25.634;2023-11-21T13:43:10;14.13;;;5.60;;
34711;SDS011;20941;42.408;25.634;2023-11-21T13:45:37;10.60;;;4.57;;
34711;SDS011;20941;42.408;25.634;2023-11-21T13:48:04;7.70;;;3.92;;
34711;SDS011;20941;42.408;25.634;2023-11-21T13:50:35;9.95;;;4.78;;
34711;SDS011;20941;42.408;25.634;2023-11-21T13:53:04;8.43;;;4.55;;
34711;SDS011;20941;42.408;25.634;2023-11-21T13:55:46;8.50;;;4.82;;
34711;SDS011;20941;42.408;25.634;2023-11-21T13:58:14;13.55;;;5.00;;
34711;SDS011;20941;42.408;25.634;2023-11-21T14:00:48;10.03;;;4.43;;
34711;SDS011;20941;42.408;25.634;2023-11-21T14:03:21;11.05;;;4.93;;
34711;SDS011;20941;42.408;25.634;2023-11-21T14:06:03;13.25;;;4.82;;
34711;SDS011;20941;42.408;25.634;2023-11-21T14:08:34;12.85;;;5.38;;
34711;SDS011;20941;42.408;25.634;2023-11-21T14:11:00;10.55;;;5.18;;
34711;SDS011;20941;42.408;25.634;2023-11-21T14:13:25;15.10;;;5.50;;
34711;SDS011;20941;42.408;25.634;2023-11-21T14:15:52;19.05;;;6.10;;
34711;SDS011;20941;42.408;25.634;2023-11-21T14:18:24;18.10;;;6.18;;
34711;SDS011;20941;42.408;25.634;2023-11-21T14:20:57;17.75;;;6.60;;
34711;SDS011;20941;42.408;25.634;2023-11-21T14:23:22;13.90;;;5.80;;
34711;SDS011;20941;42.408;25.634;2023-11-21T14:25:48;12.57;;;5.10;;
34711;SDS011;20941;42.408;25.634;2023-11-21T14:28:17;8.93;;;5.00;;
34711;SDS011;20941;42.408;25.634;2023-11-21T14:30:44;13.27;;;4.47;;
34711;SDS011;20941;42.408;25.634;2023-11-21T14:33:12;13.85;;;4.70;;
34711;SDS011;20941;42.408;25.634;2023-11-21T14:35:38;9.07;;;4.85;;
34711;SDS011;20941;42.408;25.634;2023-11-21T14:38:04;13.50;;;4.95;;
34711;SDS011;20941;42.408;25.634;2023-11-21T14:40:33;10.63;;;4.32;;
34711;SDS011;20941;42.408;25.634;2023-11-21T14:43:01;11.07;;;4.65;;
34711;SDS011;20941;42.408;25.634;2023-11-21T14:45:30;11.05;;;5.40;;
34711;SDS011;20941;42.408;25.634;2023-11-21T14:47:56;15.82;;;5.18;;
34711;SDS011;20941;42.408;25.634;2023-11-21T14:50:28;24.90;;;6.80;;
34711;SDS011;20941;42.408;25.634;2023-11-21T14:53:28;14.88;;;6.97;;